createdAt,value
2022-08-22T00:02:41.977Z,100101.09
2022-08-22T00:03:58.393Z,100103.45
2022-08-22T00:08:11.092Z,100102.86
2022-08-22T00:12:25.056Z,100102.12
2022-08-22T00:16:40.641Z,100104.95
2022-08-22T00:20:54.407Z,100103.46
2022-08-22T00:25:24.688Z,100100.30
2022-08-22T00:29:39.003Z,100104.63
2022-08-22T00:33:52.352Z,100104.83
2022-08-22T00:38:05.366Z,100104.52
2022-08-22T00:42:57.607Z,100102.06
2022-08-22T00:47:23.015Z,100101.80
2022-08-22T00:51:50.453Z,100101.41
2022-08-22T00:56:12.176Z,100101.00
2022-08-22T01:00:23.156Z,100103.27
2022-08-22T01:04:54.368Z,100101.13
2022-08-22T01:09:06.979Z,100093.27
2022-08-22T01:13:31.316Z,100091.77
2022-08-22T01:18:02.192Z,100095.64
2022-08-22T01:22:47.027Z,100095.95
2022-08-22T01:27:11.573Z,100094.70
2022-08-22T01:31:46.683Z,100098.63
2022-08-22T01:36:17.912Z,100097.52
2022-08-22T01:41:00.842Z,100093.06
2022-08-22T01:45:34.597Z,100085.55
2022-08-22T01:49:48.246Z,100083.05
2022-08-22T01:54:02.313Z,100083.04
2022-08-22T01:58:19.242Z,100085.52
2022-08-22T02:02:52.551Z,100085.96
2022-08-22T02:07:07.934Z,100084.84
2022-08-22T02:11:31.589Z,100085.42
2022-08-22T02:15:51.294Z,100089.58
2022-08-22T02:20:04.076Z,100089.74
2022-08-22T02:24:23.835Z,100099.10
2022-08-22T02:28:38.147Z,100102.24
2022-08-22T02:32:58.589Z,100109.36
2022-08-22T02:37:15.256Z,100108.55
2022-08-22T02:41:28.688Z,100115.17
2022-08-22T02:45:42.165Z,100113.38
2022-08-22T02:49:59.724Z,100112.55
2022-08-22T02:54:26.764Z,100112.16
2022-08-22T02:58:47.026Z,100112.00
2022-08-22T03:03:07.698Z,100111.69
2022-08-22T03:07:26.407Z,100111.17
2022-08-22T03:11:37.488Z,100112.48
2022-08-22T03:15:49.430Z,100112.16
2022-08-22T03:20:00.404Z,100116.74
2022-08-22T03:24:13.313Z,100114.56
2022-08-22T03:28:23.802Z,100114.41
2022-08-22T03:32:55.920Z,100115.10
2022-08-22T03:37:13.067Z,100124.24
2022-08-22T03:41:47.073Z,100129.21
2022-08-22T03:46:18.485Z,100133.30
2022-08-22T03:50:56.381Z,100131.10
2022-08-22T03:55:17.174Z,100130.15
2022-08-22T03:59:49.432Z,100124.11
2022-08-22T04:04:18.954Z,100121.16
2022-08-22T04:08:59.802Z,100125.70
2022-08-22T04:13:40.017Z,100129.11
2022-08-22T04:18:33.450Z,100126.77
2022-08-22T04:23:12.872Z,100133.52
2022-08-22T04:27:26.072Z,100135.77
2022-08-22T04:31:38.155Z,100134.75
2022-08-22T04:35:56.907Z,100137.09
2022-08-22T04:40:12.046Z,100140.11
2022-08-22T04:44:24.480Z,100141.60
2022-08-22T04:48:37.079Z,100141.92
2022-08-22T04:52:53.794Z,100144.46
2022-08-22T04:57:12.926Z,100136.91
2022-08-22T05:01:22.593Z,100129.28
2022-08-22T05:05:34.842Z,100132.64
2022-08-22T05:09:46.455Z,100134.85
2022-08-22T05:14:00.288Z,100142.67
2022-08-22T05:18:10.353Z,100150.34
2022-08-22T05:22:21.859Z,100148.92
2022-08-22T05:26:31.227Z,100151.23
2022-08-22T05:30:39.207Z,100153.98
2022-08-22T05:34:49.122Z,100150.83
2022-08-22T05:39:01.089Z,100155.09
2022-08-22T05:43:10.593Z,100155.67
2022-08-22T05:47:28.516Z,100154.83
2022-08-22T05:51:42.030Z,100163.08
2022-08-22T05:55:57.931Z,100162.01
2022-08-22T06:00:11.162Z,100165.39
2022-08-22T06:04:31.588Z,100165.14
2022-08-22T06:08:41.365Z,100163.41
2022-08-22T06:12:55.498Z,100172.86
2022-08-22T06:17:11.747Z,100179.77
2022-08-22T06:21:26.555Z,100185.27
2022-08-22T06:25:37.853Z,100182.55
2022-08-22T06:29:49.902Z,100181.52
2022-08-22T06:34:04.737Z,100173.83
2022-08-22T06:38:13.574Z,100177.16
2022-08-22T06:42:23.378Z,100182.27
2022-08-22T06:46:33.478Z,100179.70
2022-08-22T06:50:42.973Z,100185.68
2022-08-22T06:54:53.001Z,100187.08
2022-08-22T06:59:02.824Z,100185.57
2022-08-22T07:03:12.913Z,100187.48
2022-08-22T07:07:23.109Z,100190.02
2022-08-22T07:11:33.373Z,100190.77
2022-08-22T07:15:44.406Z,100184.53
2022-08-22T07:19:59.720Z,100182.74
2022-08-22T07:24:08.257Z,100184.51
2022-08-22T07:28:31.750Z,100182.92
2022-08-22T07:32:50.878Z,100181.82
2022-08-22T07:37:02.274Z,100181.38
2022-08-22T07:41:15.505Z,100181.75
2022-08-22T07:45:29.938Z,100181.00
2022-08-22T07:49:49.663Z,100178.22
2022-08-22T07:54:03.673Z,100176.31
2022-08-22T07:58:13.809Z,100167.06
2022-08-22T08:02:22.998Z,100166.80
2022-08-22T08:06:32.570Z,100172.06
2022-08-22T08:10:42.036Z,100177.93
2022-08-22T08:14:54.062Z,100180.83
2022-08-22T08:19:06.790Z,100183.44
2022-08-22T08:23:23.406Z,100180.10
2022-08-22T08:27:51.325Z,100179.71
2022-08-22T08:32:00.020Z,100182.63
2022-08-22T08:36:15.876Z,100178.67
2022-08-22T08:40:49.204Z,100181.42
2022-08-22T08:45:25.410Z,100180.13
2022-08-22T08:49:55.485Z,100176.42
2022-08-22T08:54:24.831Z,100174.88
2022-08-22T08:58:39.270Z,100175.52
2022-08-22T09:03:07.299Z,100173.30
2022-08-22T09:07:50.886Z,100169.02
2022-08-22T09:12:27.115Z,100171.30
2022-08-22T09:16:51.579Z,100169.39
2022-08-22T09:21:29.730Z,100170.61
2022-08-22T09:25:41.586Z,100171.70
2022-08-22T09:29:55.386Z,100170.25
2022-08-22T09:34:12.581Z,100168.09
2022-08-22T09:38:34.781Z,100164.47
2022-08-22T09:42:49.968Z,100167.59
2022-08-22T09:47:07.603Z,100167.79
2022-08-22T09:51:33.104Z,100168.15
2022-08-22T09:55:45.143Z,100169.58
2022-08-22T10:00:22.396Z,100168.20
2022-08-22T10:04:46.233Z,100166.16
2022-08-22T10:09:02.621Z,100163.16
2022-08-22T10:13:16.460Z,100163.42
2022-08-22T10:17:32.614Z,100164.14
2022-08-22T10:21:48.767Z,100160.55
2022-08-22T10:25:59.535Z,100163.27
2022-08-22T10:30:13.398Z,100160.14
2022-08-22T10:34:26.359Z,100160.91
2022-08-22T10:38:46.502Z,100161.31
2022-08-22T10:42:59.365Z,100156.70
2022-08-22T10:47:13.930Z,100160.98
2022-08-22T10:51:38.040Z,100161.95
2022-08-22T10:55:51.721Z,100161.77
2022-08-22T11:00:15.560Z,100158.63
2022-08-22T11:04:36.803Z,100160.56
2022-08-22T11:09:14.922Z,100159.15
2022-08-22T11:13:32.212Z,100154.60
2022-08-22T11:18:13.198Z,100153.33
2022-08-22T11:22:33.163Z,100151.08
2022-08-22T11:26:46.641Z,100157.40
2022-08-22T11:31:07.223Z,100161.02
2022-08-22T11:35:21.228Z,100164.11
2022-08-22T11:39:35.389Z,100166.83
2022-08-22T11:44:01.466Z,100168.77
2022-08-22T11:48:14.462Z,100168.83
2022-08-22T11:52:26.887Z,100167.76
2022-08-22T11:56:41.543Z,100175.21
2022-08-22T12:00:54.311Z,100173.70
2022-08-22T12:05:08.789Z,100174.76
2022-08-22T12:09:47.720Z,100171.23
2022-08-22T12:14:02.330Z,100167.30
2022-08-22T12:18:38.758Z,100168.40
2022-08-22T12:23:03.471Z,100171.89
2022-08-22T12:27:29.304Z,100170.86
2022-08-22T12:31:42.699Z,100170.64
2022-08-22T12:36:01.845Z,100172.10
2022-08-22T12:40:26.395Z,100169.55
2022-08-22T12:44:44.626Z,100168.63
2022-08-22T12:49:07.461Z,100162.36
2022-08-22T12:53:46.099Z,100161.85
2022-08-22T12:58:00.884Z,100162.10
2022-08-22T13:02:19.210Z,100158.86
2022-08-22T13:07:06.662Z,100161.08
2022-08-22T13:11:22.984Z,100156.52
2022-08-22T13:15:34.321Z,100156.44
2022-08-22T13:19:56.221Z,100156.48
2022-08-22T13:24:10.601Z,100155.90
2022-08-22T13:28:20.347Z,100154.45
2022-08-22T13:32:32.906Z,100154.63
2022-08-22T13:36:52.126Z,100155.27
2022-08-22T13:41:01.436Z,100154.39
2022-08-22T13:45:15.897Z,100152.83
2022-08-22T13:49:36.181Z,100150.95
2022-08-22T13:53:56.709Z,100150.73
2022-08-22T13:58:14.572Z,100149.88
2022-08-22T14:02:39.052Z,100151.48
2022-08-22T14:06:55.677Z,100148.48
2022-08-22T14:11:08.493Z,100148.05
2022-08-22T14:15:24.065Z,100144.50
2022-08-22T14:19:58.766Z,100138.97
2022-08-22T14:24:07.565Z,100136.06
2022-08-22T14:28:27.680Z,100133.81
2022-08-22T14:32:44.588Z,100133.77
2022-08-22T14:36:58.163Z,100130.27
2022-08-22T14:41:09.358Z,100138.88
2022-08-22T14:45:21.913Z,100132.38
2022-08-22T14:49:38.226Z,100134.38
2022-08-22T14:53:45.776Z,100132.25
2022-08-22T14:58:03.368Z,100129.91
2022-08-22T15:02:14.699Z,100129.52
2022-08-22T15:06:37.056Z,100135.90
2022-08-22T15:10:45.547Z,100134.99
2022-08-22T15:14:56.585Z,100134.40
2022-08-22T15:19:06.731Z,100128.83
2022-08-22T15:23:22.104Z,100133.49
2022-08-22T15:27:32.878Z,100129.56
2022-08-22T15:31:46.445Z,100128.80
2022-08-22T15:35:56.309Z,100125.99
2022-08-22T15:40:12.738Z,100123.77
2022-08-22T15:44:33.482Z,100127.96
2022-08-22T15:48:43.451Z,100126.02
2022-08-22T15:53:16.499Z,100124.71
2022-08-22T15:57:29.670Z,100123.43
2022-08-22T16:01:45.712Z,100124.52
2022-08-22T16:06:00.917Z,100126.52
2022-08-22T16:10:15.211Z,100128.73
2022-08-22T16:14:26.741Z,100130.23
2022-08-22T16:19:12.861Z,100132.90
2022-08-22T16:23:20.467Z,100126.33
2022-08-22T16:27:29.664Z,100128.96
2022-08-22T16:31:39.418Z,100128.48
2022-08-22T16:36:26.827Z,100130.64
2022-08-22T16:40:48.734Z,100130.06
2022-08-22T16:44:59.479Z,100128.45
2022-08-22T16:49:08.074Z,100134.55
2022-08-22T16:53:45.844Z,100138.27
2022-08-22T16:58:06.427Z,100138.70
2022-08-22T17:02:53.396Z,100139.11
2022-08-22T17:07:11.598Z,100135.67
2022-08-22T17:11:30.146Z,100143.48
2022-08-22T17:15:52.038Z,100147.46
2022-08-22T17:20:09.257Z,100149.61
2022-08-22T17:24:34.083Z,100152.50
2022-08-22T17:28:49.275Z,100152.83
2022-08-22T17:33:15.065Z,100152.02
2022-08-22T17:37:27.458Z,100145.73
2022-08-22T17:41:41.230Z,100150.19
2022-08-22T17:46:13.355Z,100155.09
2022-08-22T17:50:27.131Z,100157.59
2022-08-22T17:54:37.190Z,100164.42
2022-08-22T17:58:49.648Z,100161.52
2022-08-22T18:03:02.193Z,100160.86
2022-08-22T18:07:29.164Z,100165.14
2022-08-22T18:11:44.408Z,100166.39
2022-08-22T18:18:31.271Z,100168.05
2022-08-22T18:22:47.557Z,100167.11
2022-08-22T18:27:02.945Z,100164.48
2022-08-22T18:31:26.415Z,100168.17
2022-08-22T18:35:41.776Z,100171.84
2022-08-22T18:39:55.623Z,100166.58
2022-08-22T18:44:12.778Z,100169.67
2022-08-22T18:48:24.570Z,100172.51
2022-08-22T18:52:46.399Z,100174.61
2022-08-22T18:57:07.316Z,100177.44
2022-08-22T19:01:42.012Z,100174.67
2022-08-22T19:06:24.429Z,100177.27
2022-08-22T19:10:56.553Z,100180.48
2022-08-22T19:15:26.156Z,100184.33
2022-08-22T19:20:01.784Z,100184.08
2022-08-22T19:24:11.565Z,100182.27
2022-08-22T19:28:31.315Z,100181.95
2022-08-22T19:33:04.034Z,100178.07
2022-08-22T19:37:34.186Z,100178.68
2022-08-22T19:41:57.216Z,100177.39
2022-08-22T19:46:09.146Z,100181.20
2022-08-22T19:50:31.539Z,100178.83
2022-08-22T19:54:48.596Z,100178.36
2022-08-22T19:59:10.030Z,100173.07
2022-08-22T20:03:31.212Z,100172.23
2022-08-22T20:07:51.954Z,100169.84
2022-08-22T20:12:12.004Z,100172.42
2022-08-22T20:16:25.529Z,100175.82
2022-08-22T20:21:01.504Z,100169.61
2022-08-22T20:25:20.708Z,100162.00
2022-08-22T20:29:44.267Z,100157.02
2022-08-22T20:33:57.927Z,100148.70
2022-08-22T20:38:08.905Z,100138.58
2022-08-22T20:42:18.231Z,100142.19
2022-08-22T20:46:53.544Z,100141.54
2022-08-22T20:51:07.685Z,100147.31
2022-08-22T20:55:19.498Z,100146.45
2022-08-22T20:59:37.240Z,100144.92
2022-08-22T21:03:47.124Z,100145.09
2022-08-22T21:08:10.269Z,100146.20
2022-08-22T21:12:19.676Z,100146.45
2022-08-22T21:16:32.035Z,100139.23
2022-08-22T21:20:40.959Z,100136.17
2022-08-22T21:24:48.660Z,100126.36
2022-08-22T21:29:02.134Z,100120.48
2022-08-22T21:33:09.557Z,100111.73
2022-08-22T21:37:18.947Z,100106.88
2022-08-22T21:41:33.424Z,100108.68
2022-08-22T21:45:47.366Z,100101.05
2022-08-22T21:50:08.372Z,100103.02
2022-08-22T21:54:40.343Z,100106.83
2022-08-22T21:58:48.318Z,100107.15
2022-08-22T22:03:02.874Z,100105.12
2022-08-22T22:07:10.892Z,100105.16
2022-08-22T22:11:19.391Z,100108.63
2022-08-22T22:15:31.939Z,100105.14
2022-08-22T22:19:40.540Z,100108.80
2022-08-22T22:23:51.032Z,100109.22
2022-08-22T22:27:59.229Z,100108.46
2022-08-22T22:32:07.836Z,100104.60
2022-08-22T22:36:17.837Z,100104.48
2022-08-22T22:40:26.055Z,100104.51
2022-08-22T22:44:34.400Z,100102.43
2022-08-22T22:48:42.254Z,100105.17
2022-08-22T22:52:50.012Z,100102.77
2022-08-22T22:56:58.629Z,100101.70
2022-08-22T23:01:13.607Z,100101.58
2022-08-22T23:05:23.245Z,100098.55
2022-08-22T23:09:37.938Z,100096.17
2022-08-22T23:13:48.519Z,100095.45
2022-08-22T23:17:56.366Z,100093.17
2022-08-22T23:22:04.626Z,100088.64
2022-08-22T23:26:13.388Z,100092.20
2022-08-22T23:30:21.471Z,100087.25
2022-08-22T23:34:30.953Z,100083.92
2022-08-22T23:38:38.447Z,100082.23
2022-08-22T23:42:46.425Z,100080.34
2022-08-22T23:46:54.053Z,100074.71
2022-08-22T23:51:01.845Z,100074.05
2022-08-22T23:55:10.903Z,100073.08
2022-08-22T23:59:24.270Z,100076.26
